sensor_id;sensor_type;location;lat;lon;timestamp;P1;durP1;ratioP1;P2;durP2;ratioP2
21168;SDS011;10742;51.816;8.662;2022-07-30T00:03:08;1999.90;;;701.15;;
21168;SDS011;10742;51.816;8.662;2022-07-30T00:06:31;1999.90;;;711.42;;
21168;SDS011;10742;51.816;8.662;2022-07-30T00:09:58;1999.90;;;765.45;;
21168;SDS011;10742;51.816;8.662;2022-07-30T00:13:20;1999.90;;;799.13;;
21168;SDS011;10742;51.816;8.662;2022-07-30T00:16:43;1999.90;;;794.08;;
21168;SDS011;10742;51.816;8.662;2022-07-30T00:20:07;1999.90;;;828.17;;
21168;SDS011;10742;51.816;8.662;2022-07-30T00:23:30;1999.90;;;881.70;;
21168;SDS011;10742;51.816;8.662;2022-07-30T00:26:54;1999.90;;;864.13;;
21168;SDS011;10742;51.816;8.662;2022-07-30T00:30:16;1999.90;;;930.70;;
21168;SDS011;10742;51.816;8.662;2022-07-30T00:33:39;1999.90;;;891.08;;
21168;SDS011;10742;51.816;8.662;2022-07-30T00:37:02;1999.90;;;964.45;;
21168;SDS011;10742;51.816;8.662;2022-07-30T00:40:25;1999.90;;;999.90;;
21168;SDS011;10742;51.816;8.662;2022-07-30T00:43:49;1999.90;;;998.20;;
21168;SDS011;10742;51.816;8.662;2022-07-30T00:47:11;1999.90;;;999.90;;
21168;SDS011;10742;51.816;8.662;2022-07-30T00:50:34;1999.90;;;999.90;;
21168;SDS011;10742;51.816;8.662;2022-07-30T00:53:57;1999.90;;;999.90;;
21168;SDS011;10742;51.816;8.662;2022-07-30T00:57:20;1999.90;;;999.90;;
21168;SDS011;10742;51.816;8.662;2022-07-30T01:00:43;1999.90;;;999.90;;
21168;SDS011;10742;51.816;8.662;2022-07-30T01:04:07;1999.90;;;999.90;;
21168;SDS011;10742;51.816;8.662;2022-07-30T01:07:32;1999.90;;;999.90;;
21168;SDS011;10742;51.816;8.662;2022-07-30T01:10:55;1999.90;;;996.87;;
21168;SDS011;10742;51.816;8.662;2022-07-30T01:14:19;1999.90;;;996.70;;
21168;SDS011;10742;51.816;8.662;2022-07-30T01:17:42;1999.90;;;999.90;;
21168;SDS011;10742;51.816;8.662;2022-07-30T01:21:06;1999.90;;;999.90;;
21168;SDS011;10742;51.816;8.662;2022-07-30T01:24:37;1999.90;;;999.90;;
21168;SDS011;10742;51.816;8.662;2022-07-30T01:28:08;1999.90;;;999.90;;
21168;SDS011;10742;51.816;8.662;2022-07-30T01:31:33;1999.90;;;999.90;;
21168;SDS011;10742;51.816;8.662;2022-07-30T01:34:56;1999.90;;;999.90;;
21168;SDS011;10742;51.816;8.662;2022-07-30T01:38:23;1999.90;;;999.90;;
21168;SDS011;10742;51.816;8.662;2022-07-30T01:41:46;1999.90;;;999.90;;
21168;SDS011;10742;51.816;8.662;2022-07-30T01:45:10;1999.90;;;999.90;;
21168;SDS011;10742;51.816;8.662;2022-07-30T01:48:34;1999.90;;;999.90;;
21168;SDS011;10742;51.816;8.662;2022-07-30T01:52:03;1999.90;;;999.90;;
21168;SDS011;10742;51.816;8.662;2022-07-30T01:55:32;1999.90;;;999.90;;
21168;SDS011;10742;51.816;8.662;2022-07-30T01:58:57;1999.90;;;999.90;;
21168;SDS011;10742;51.816;8.662;2022-07-30T02:02:22;1999.90;;;999.90;;
21168;SDS011;10742;51.816;8.662;2022-07-30T02:05:44;1999.90;;;999.90;;
21168;SDS011;10742;51.816;8.662;2022-07-30T02:09:20;1999.90;;;999.90;;
21168;SDS011;10742;51.816;8.662;2022-07-30T02:12:50;1999.90;;;999.90;;
21168;SDS011;10742;51.816;8.662;2022-07-30T02:16:21;1999.90;;;999.90;;
21168;SDS011;10742;51.816;8.662;2022-07-30T02:19:48;1999.90;;;999.90;;
21168;SDS011;10742;51.816;8.662;2022-07-30T02:23:13;1999.90;;;999.90;;
21168;SDS011;10742;51.816;8.662;2022-07-30T02:26:36;1999.90;;;999.90;;
21168;SDS011;10742;51.816;8.662;2022-07-30T02:29:59;1999.90;;;999.90;;
21168;SDS011;10742;51.816;8.662;2022-07-30T02:33:25;1999.90;;;999.90;;
21168;SDS011;10742;51.816;8.662;2022-07-30T02:36:53;1999.90;;;999.90;;
21168;SDS011;10742;51.816;8.662;2022-07-30T02:40:17;1999.90;;;999.90;;
21168;SDS011;10742;51.816;8.662;2022-07-30T02:43:40;1999.90;;;999.90;;
21168;SDS011;10742;51.816;8.662;2022-07-30T02:47:03;1999.90;;;999.90;;
21168;SDS011;10742;51.816;8.662;2022-07-30T02:50:31;1999.90;;;999.90;;
21168;SDS011;10742;51.816;8.662;2022-07-30T02:53:54;1999.90;;;999.90;;
21168;SDS011;10742;51.816;8.662;2022-07-30T02:57:20;1999.90;;;999.90;;
21168;SDS011;10742;51.816;8.662;2022-07-30T03:00:42;1999.90;;;999.90;;
21168;SDS011;10742;51.816;8.662;2022-07-30T03:04:05;1999.90;;;999.90;;
21168;SDS011;10742;51.816;8.662;2022-07-30T03:07:28;1999.90;;;999.90;;
21168;SDS011;10742;51.816;8.662;2022-07-30T03:10:52;1999.90;;;999.90;;
21168;SDS011;10742;51.816;8.662;2022-07-30T03:14:17;1999.90;;;999.90;;
21168;SDS011;10742;51.816;8.662;2022-07-30T03:17:42;1999.90;;;999.90;;
21168;SDS011;10742;51.816;8.662;2022-07-30T03:21:06;1999.90;;;999.90;;
21168;SDS011;10742;51.816;8.662;2022-07-30T03:24:29;1999.90;;;999.90;;
21168;SDS011;10742;51.816;8.662;2022-07-30T03:27:56;1999.90;;;999.90;;
21168;SDS011;10742;51.816;8.662;2022-07-30T03:31:19;1999.90;;;999.90;;
21168;SDS011;10742;51.816;8.662;2022-07-30T03:34:41;1999.90;;;999.90;;
21168;SDS011;10742;51.816;8.662;2022-07-30T03:38:03;1999.90;;;999.90;;
21168;SDS011;10742;51.816;8.662;2022-07-30T03:41:25;1999.90;;;999.90;;
21168;SDS011;10742;51.816;8.662;2022-07-30T03:44:47;1999.90;;;999.90;;
21168;SDS011;10742;51.816;8.662;2022-07-30T03:48:10;1999.90;;;999.90;;
21168;SDS011;10742;51.816;8.662;2022-07-30T03:51:37;1999.90;;;999.90;;
21168;SDS011;10742;51.816;8.662;2022-07-30T03:54:58;1999.90;;;999.90;;
21168;SDS011;10742;51.816;8.662;2022-07-30T03:58:38;1999.90;;;999.90;;
21168;SDS011;10742;51.816;8.662;2022-07-30T04:02:02;1999.90;;;999.90;;
21168;SDS011;10742;51.816;8.662;2022-07-30T04:05:41;1999.90;;;999.90;;
21168;SDS011;10742;51.816;8.662;2022-07-30T04:09:08;1999.90;;;999.90;;
21168;SDS011;10742;51.816;8.662;2022-07-30T04:12:31;1999.90;;;999.90;;
21168;SDS011;10742;51.816;8.662;2022-07-30T04:19:45;1999.90;;;999.90;;
21168;SDS011;10742;51.816;8.662;2022-07-30T04:23:09;1999.90;;;999.90;;
21168;SDS011;10742;51.816;8.662;2022-07-30T04:26:33;1999.90;;;999.90;;
21168;SDS011;10742;51.816;8.662;2022-07-30T04:29:57;1999.90;;;999.90;;
21168;SDS011;10742;51.816;8.662;2022-07-30T04:33:19;1999.90;;;999.90;;
21168;SDS011;10742;51.816;8.662;2022-07-30T04:37:06;1999.90;;;999.90;;
21168;SDS011;10742;51.816;8.662;2022-07-30T04:40:27;1999.90;;;999.90;;
21168;SDS011;10742;51.816;8.662;2022-07-30T04:43:50;1999.90;;;999.90;;
21168;SDS011;10742;51.816;8.662;2022-07-30T04:47:13;1999.90;;;999.90;;
21168;SDS011;10742;51.816;8.662;2022-07-30T04:50:48;1999.90;;;999.90;;
21168;SDS011;10742;51.816;8.662;2022-07-30T04:54:14;1999.90;;;999.90;;
21168;SDS011;10742;51.816;8.662;2022-07-30T04:57:37;1999.90;;;999.90;;
21168;SDS011;10742;51.816;8.662;2022-07-30T05:01:02;1999.90;;;999.90;;
21168;SDS011;10742;51.816;8.662;2022-07-30T05:04:25;1999.90;;;999.90;;
21168;SDS011;10742;51.816;8.662;2022-07-30T05:07:47;1999.90;;;999.90;;
21168;SDS011;10742;51.816;8.662;2022-07-30T05:11:12;1999.90;;;999.90;;
21168;SDS011;10742;51.816;8.662;2022-07-30T05:14:34;1999.90;;;999.90;;
21168;SDS011;10742;51.816;8.662;2022-07-30T05:17:55;1999.90;;;999.90;;
21168;SDS011;10742;51.816;8.662;2022-07-30T05:21:18;1999.90;;;999.90;;
21168;SDS011;10742;51.816;8.662;2022-07-30T05:24:41;1999.90;;;999.90;;
21168;SDS011;10742;51.816;8.662;2022-07-30T05:28:03;1999.90;;;999.90;;
21168;SDS011;10742;51.816;8.662;2022-07-30T05:31:24;1999.90;;;999.90;;
21168;SDS011;10742;51.816;8.662;2022-07-30T05:34:50;1999.90;;;999.90;;
21168;SDS011;10742;51.816;8.662;2022-07-30T05:38:12;1999.90;;;999.90;;
21168;SDS011;10742;51.816;8.662;2022-07-30T05:41:52;1999.90;;;999.90;;
21168;SDS011;10742;51.816;8.662;2022-07-30T05:45:20;1999.90;;;999.90;;
21168;SDS011;10742;51.816;8.662;2022-07-30T05:48:42;1999.90;;;999.90;;
21168;SDS011;10742;51.816;8.662;2022-07-30T05:52:03;1999.90;;;999.90;;
21168;SDS011;10742;51.816;8.662;2022-07-30T05:55:25;1999.90;;;999.90;;
21168;SDS011;10742;51.816;8.662;2022-07-30T05:59:00;1999.90;;;999.90;;
21168;SDS011;10742;51.816;8.662;2022-07-30T06:02:42;1999.90;;;999.90;;
21168;SDS011;10742;51.816;8.662;2022-07-30T06:06:18;1999.90;;;999.90;;
21168;SDS011;10742;51.816;8.662;2022-07-30T06:09:42;1999.90;;;999.90;;
21168;SDS011;10742;51.816;8.662;2022-07-30T06:13:03;1999.90;;;999.90;;
21168;SDS011;10742;51.816;8.662;2022-07-30T06:16:25;1999.90;;;999.90;;
21168;SDS011;10742;51.816;8.662;2022-07-30T06:19:46;1999.90;;;999.90;;
21168;SDS011;10742;51.816;8.662;2022-07-30T06:23:08;1999.90;;;999.90;;
21168;SDS011;10742;51.816;8.662;2022-07-30T06:26:47;1999.90;;;999.90;;
21168;SDS011;10742;51.816;8.662;2022-07-30T06:30:09;1999.90;;;999.90;;
21168;SDS011;10742;51.816;8.662;2022-07-30T06:33:31;1999.90;;;999.90;;
21168;SDS011;10742;51.816;8.662;2022-07-30T06:36:53;1999.90;;;999.90;;
21168;SDS011;10742;51.816;8.662;2022-07-30T06:40:15;1999.90;;;999.90;;
21168;SDS011;10742;51.816;8.662;2022-07-30T06:43:56;1999.90;;;999.90;;
21168;SDS011;10742;51.816;8.662;2022-07-30T06:47:37;1999.90;;;998.72;;
21168;SDS011;10742;51.816;8.662;2022-07-30T06:50:59;1999.90;;;899.85;;
21168;SDS011;10742;51.816;8.662;2022-07-30T06:54:21;1999.90;;;973.88;;
21168;SDS011;10742;51.816;8.662;2022-07-30T06:58:03;1999.90;;;872.95;;
21168;SDS011;10742;51.816;8.662;2022-07-30T07:01:56;1999.90;;;806.17;;
21168;SDS011;10742;51.816;8.662;2022-07-30T07:05:19;1999.90;;;858.00;;
21168;SDS011;10742;51.816;8.662;2022-07-30T07:08:43;1999.90;;;595.38;;
21168;SDS011;10742;51.816;8.662;2022-07-30T07:12:08;1960.03;;;525.28;;
21168;SDS011;10742;51.816;8.662;2022-07-30T07:15:30;1319.00;;;402.70;;
21168;SDS011;10742;51.816;8.662;2022-07-30T07:18:52;855.38;;;272.17;;
21168;SDS011;10742;51.816;8.662;2022-07-30T07:22:14;645.58;;;200.00;;
21168;SDS011;10742;51.816;8.662;2022-07-30T07:25:36;432.27;;;143.38;;
21168;SDS011;10742;51.816;8.662;2022-07-30T07:28:57;224.80;;;69.07;;
21168;SDS011;10742;51.816;8.662;2022-07-30T07:32:20;207.05;;;65.95;;
21168;SDS011;10742;51.816;8.662;2022-07-30T07:35:42;70.43;;;33.40;;
21168;SDS011;10742;51.816;8.662;2022-07-30T07:39:04;43.50;;;22.88;;
21168;SDS011;10742;51.816;8.662;2022-07-30T07:42:31;27.88;;;16.25;;
21168;SDS011;10742;51.816;8.662;2022-07-30T07:45:53;20.30;;;11.60;;
21168;SDS011;10742;51.816;8.662;2022-07-30T07:49:15;18.17;;;11.65;;
21168;SDS011;10742;51.816;8.662;2022-07-30T07:52:43;24.30;;;12.25;;
21168;SDS011;10742;51.816;8.662;2022-07-30T07:56:05;18.90;;;12.43;;
21168;SDS011;10742;51.816;8.662;2022-07-30T07:59:28;16.92;;;11.60;;
21168;SDS011;10742;51.816;8.662;2022-07-30T08:02:50;13.38;;;8.98;;
21168;SDS011;10742;51.816;8.662;2022-07-30T08:06:11;15.88;;;9.50;;
21168;SDS011;10742;51.816;8.662;2022-07-30T08:09:57;13.55;;;8.77;;
21168;SDS011;10742;51.816;8.662;2022-07-30T08:13:19;14.75;;;8.32;;
21168;SDS011;10742;51.816;8.662;2022-07-30T08:17:15;14.40;;;7.75;;
21168;SDS011;10742;51.816;8.662;2022-07-30T08:20:59;14.75;;;8.30;;
21168;SDS011;10742;51.816;8.662;2022-07-30T08:24:24;15.63;;;7.57;;
21168;SDS011;10742;51.816;8.662;2022-07-30T08:27:45;14.88;;;6.13;;
21168;SDS011;10742;51.816;8.662;2022-07-30T08:31:07;14.30;;;7.13;;
21168;SDS011;10742;51.816;8.662;2022-07-30T08:34:28;13.90;;;7.30;;
21168;SDS011;10742;51.816;8.662;2022-07-30T08:37:50;13.02;;;6.88;;
21168;SDS011;10742;51.816;8.662;2022-07-30T08:41:16;15.63;;;7.38;;
21168;SDS011;10742;51.816;8.662;2022-07-30T08:44:39;14.93;;;6.47;;
21168;SDS011;10742;51.816;8.662;2022-07-30T08:48:01;11.38;;;6.25;;
21168;SDS011;10742;51.816;8.662;2022-07-30T08:51:36;14.95;;;7.35;;
21168;SDS011;10742;51.816;8.662;2022-07-30T08:55:04;16.38;;;7.38;;
21168;SDS011;10742;51.816;8.662;2022-07-30T08:58:31;11.90;;;6.65;;
21168;SDS011;10742;51.816;8.662;2022-07-30T09:01:54;14.80;;;6.20;;
21168;SDS011;10742;51.816;8.662;2022-07-30T09:05:19;14.52;;;6.90;;
21168;SDS011;10742;51.816;8.662;2022-07-30T09:08:41;15.60;;;7.18;;
21168;SDS011;10742;51.816;8.662;2022-07-30T09:12:30;13.20;;;6.38;;
21168;SDS011;10742;51.816;8.662;2022-07-30T09:16:03;12.68;;;6.68;;
21168;SDS011;10742;51.816;8.662;2022-07-30T09:19:30;14.38;;;7.20;;
21168;SDS011;10742;51.816;8.662;2022-07-30T09:22:56;14.20;;;6.70;;
21168;SDS011;10742;51.816;8.662;2022-07-30T09:27:00;14.70;;;5.65;;
21168;SDS011;10742;51.816;8.662;2022-07-30T09:30:45;18.67;;;6.78;;
21168;SDS011;10742;51.816;8.662;2022-07-30T09:34:29;14.02;;;6.47;;
21168;SDS011;10742;51.816;8.662;2022-07-30T09:37:58;13.80;;;7.10;;
21168;SDS011;10742;51.816;8.662;2022-07-30T09:41:41;12.30;;;6.60;;
21168;SDS011;10742;51.816;8.662;2022-07-30T09:45:05;13.20;;;5.88;;
21168;SDS011;10742;51.816;8.662;2022-07-30T09:48:28;12.50;;;5.97;;
21168;SDS011;10742;51.816;8.662;2022-07-30T09:51:50;9.30;;;5.45;;
21168;SDS011;10742;51.816;8.662;2022-07-30T09:55:13;12.57;;;5.63;;
21168;SDS011;10742;51.816;8.662;2022-07-30T09:58:40;13.45;;;4.88;;
21168;SDS011;10742;51.816;8.662;2022-07-30T10:02:05;9.50;;;4.60;;
21168;SDS011;10742;51.816;8.662;2022-07-30T10:05:52;13.50;;;4.32;;
21168;SDS011;10742;51.816;8.662;2022-07-30T10:09:29;9.35;;;4.75;;
21168;SDS011;10742;51.816;8.662;2022-07-30T10:13:01;14.85;;;4.80;;
21168;SDS011;10742;51.816;8.662;2022-07-30T10:16:25;9.65;;;4.68;;
21168;SDS011;10742;51.816;8.662;2022-07-30T10:19:49;8.90;;;4.93;;
21168;SDS011;10742;51.816;8.662;2022-07-30T10:23:29;11.50;;;4.95;;
21168;SDS011;10742;51.816;8.662;2022-07-30T10:27:10;10.27;;;4.93;;
21168;SDS011;10742;51.816;8.662;2022-07-30T10:31:01;11.18;;;4.22;;
21168;SDS011;10742;51.816;8.662;2022-07-30T10:34:23;11.85;;;5.07;;
21168;SDS011;10742;51.816;8.662;2022-07-30T10:37:46;7.88;;;3.90;;
21168;SDS011;10742;51.816;8.662;2022-07-30T10:48:37;11.18;;;4.00;;
21168;SDS011;10742;51.816;8.662;2022-07-30T10:52:00;10.90;;;4.60;;
21168;SDS011;10742;51.816;8.662;2022-07-30T10:55:26;7.65;;;4.18;;
21168;SDS011;10742;51.816;8.662;2022-07-30T10:59:06;12.82;;;5.20;;
21168;SDS011;10742;51.816;8.662;2022-07-30T11:02:31;9.88;;;3.92;;
21168;SDS011;10742;51.816;8.662;2022-07-30T11:09:36;12.82;;;4.22;;
21168;SDS011;10742;51.816;8.662;2022-07-30T11:12:58;8.60;;;3.67;;
21168;SDS011;10742;51.816;8.662;2022-07-30T11:16:21;6.57;;;4.07;;
21168;SDS011;10742;51.816;8.662;2022-07-30T11:26:48;7.65;;;3.70;;
21168;SDS011;10742;51.816;8.662;2022-07-30T11:33:38;7.00;;;3.50;;
21168;SDS011;10742;51.816;8.662;2022-07-30T11:44:23;4.03;;;2.70;;
21168;SDS011;10742;51.816;8.662;2022-07-30T11:47:47;8.23;;;2.92;;
21168;SDS011;10742;51.816;8.662;2022-07-30T11:51:10;6.93;;;3.15;;
21168;SDS011;10742;51.816;8.662;2022-07-30T11:54:31;8.18;;;3.40;;
21168;SDS011;10742;51.816;8.662;2022-07-30T11:57:53;11.23;;;3.13;;
21168;SDS011;10742;51.816;8.662;2022-07-30T12:01:15;6.50;;;3.28;;
21168;SDS011;10742;51.816;8.662;2022-07-30T12:04:42;11.73;;;4.07;;
21168;SDS011;10742;51.816;8.662;2022-07-30T12:08:03;10.40;;;3.50;;
21168;SDS011;10742;51.816;8.662;2022-07-30T12:11:35;12.73;;;3.08;;
21168;SDS011;10742;51.816;8.662;2022-07-30T12:14:56;13.30;;;3.50;;
21168;SDS011;10742;51.816;8.662;2022-07-30T12:18:25;8.10;;;2.95;;
21168;SDS011;10742;51.816;8.662;2022-07-30T12:21:49;7.43;;;3.03;;
21168;SDS011;10742;51.816;8.662;2022-07-30T12:25:12;23.23;;;4.03;;
21168;SDS011;10742;51.816;8.662;2022-07-30T12:28:34;6.60;;;2.65;;
21168;SDS011;10742;51.816;8.662;2022-07-30T12:31:55;6.72;;;2.78;;
21168;SDS011;10742;51.816;8.662;2022-07-30T12:35:16;5.95;;;2.80;;
21168;SDS011;10742;51.816;8.662;2022-07-30T12:38:42;8.60;;;3.00;;
21168;SDS011;10742;51.816;8.662;2022-07-30T12:42:05;7.00;;;3.30;;
21168;SDS011;10742;51.816;8.662;2022-07-30T12:45:32;5.53;;;2.67;;
21168;SDS011;10742;51.816;8.662;2022-07-30T12:49:03;5.80;;;2.50;;
21168;SDS011;10742;51.816;8.662;2022-07-30T12:52:27;8.55;;;2.70;;
21168;SDS011;10742;51.816;8.662;2022-07-30T12:55:53;6.10;;;2.92;;
21168;SDS011;10742;51.816;8.662;2022-07-30T12:59:29;7.55;;;2.90;;
21168;SDS011;10742;51.816;8.662;2022-07-30T13:02:52;14.60;;;3.35;;
21168;SDS011;10742;51.816;8.662;2022-07-30T13:06:15;5.63;;;2.63;;
21168;SDS011;10742;51.816;8.662;2022-07-30T13:09:41;4.10;;;2.50;;
21168;SDS011;10742;51.816;8.662;2022-07-30T13:13:02;4.95;;;2.50;;
21168;SDS011;10742;51.816;8.662;2022-07-30T13:16:23;5.28;;;2.40;;
21168;SDS011;10742;51.816;8.662;2022-07-30T13:19:44;4.38;;;2.38;;
21168;SDS011;10742;51.816;8.662;2022-07-30T13:23:06;5.07;;;2.70;;
21168;SDS011;10742;51.816;8.662;2022-07-30T13:26:28;3.53;;;2.55;;
21168;SDS011;10742;51.816;8.662;2022-07-30T13:29:49;5.05;;;2.45;;
21168;SDS011;10742;51.816;8.662;2022-07-30T13:33:11;7.85;;;2.60;;
21168;SDS011;10742;51.816;8.662;2022-07-30T13:36:32;6.10;;;2.40;;
21168;SDS011;10742;51.816;8.662;2022-07-30T13:39:53;6.85;;;2.65;;
21168;SDS011;10742;51.816;8.662;2022-07-30T13:43:15;8.30;;;2.90;;
21168;SDS011;10742;51.816;8.662;2022-07-30T13:46:36;4.95;;;2.50;;
21168;SDS011;10742;51.816;8.662;2022-07-30T13:49:59;4.28;;;2.25;;
21168;SDS011;10742;51.816;8.662;2022-07-30T13:53:21;3.80;;;2.70;;
21168;SDS011;10742;51.816;8.662;2022-07-30T13:56:42;7.13;;;2.60;;
21168;SDS011;10742;51.816;8.662;2022-07-30T14:00:04;5.60;;;2.75;;
21168;SDS011;10742;51.816;8.662;2022-07-30T14:03:27;4.47;;;2.28;;
21168;SDS011;10742;51.816;8.662;2022-07-30T14:06:48;4.85;;;2.33;;
21168;SDS011;10742;51.816;8.662;2022-07-30T14:10:10;6.32;;;2.65;;
21168;SDS011;10742;51.816;8.662;2022-07-30T14:13:31;4.53;;;2.50;;
21168;SDS011;10742;51.816;8.662;2022-07-30T14:16:52;6.43;;;2.70;;
21168;SDS011;10742;51.816;8.662;2022-07-30T14:20:14;5.40;;;2.60;;
21168;SDS011;10742;51.816;8.662;2022-07-30T14:23:35;7.00;;;2.63;;
21168;SDS011;10742;51.816;8.662;2022-07-30T14:26:57;5.63;;;2.75;;
21168;SDS011;10742;51.816;8.662;2022-07-30T14:30:19;7.20;;;2.50;;
21168;SDS011;10742;51.816;8.662;2022-07-30T14:33:41;5.43;;;2.42;;
21168;SDS011;10742;51.816;8.662;2022-07-30T14:37:02;5.93;;;2.60;;
21168;SDS011;10742;51.816;8.662;2022-07-30T14:40:24;6.45;;;2.38;;
21168;SDS011;10742;51.816;8.662;2022-07-30T14:43:45;7.95;;;3.00;;
21168;SDS011;10742;51.816;8.662;2022-07-30T14:47:07;9.13;;;2.70;;
21168;SDS011;10742;51.816;8.662;2022-07-30T14:50:28;9.10;;;2.78;;
21168;SDS011;10742;51.816;8.662;2022-07-30T14:53:49;6.07;;;2.58;;
21168;SDS011;10742;51.816;8.662;2022-07-30T14:57:11;6.97;;;2.70;;
21168;SDS011;10742;51.816;8.662;2022-07-30T15:00:32;4.40;;;2.22;;
21168;SDS011;10742;51.816;8.662;2022-07-30T15:03:54;9.05;;;2.85;;
21168;SDS011;10742;51.816;8.662;2022-07-30T15:07:15;4.75;;;2.40;;
21168;SDS011;10742;51.816;8.662;2022-07-30T15:10:40;5.15;;;2.25;;
21168;SDS011;10742;51.816;8.662;2022-07-30T15:14:02;5.85;;;2.47;;
21168;SDS011;10742;51.816;8.662;2022-07-30T15:17:23;4.85;;;2.55;;
21168;SDS011;10742;51.816;8.662;2022-07-30T15:20:46;7.88;;;2.40;;
21168;SDS011;10742;51.816;8.662;2022-07-30T15:24:07;5.70;;;2.45;;
21168;SDS011;10742;51.816;8.662;2022-07-30T15:27:28;7.63;;;3.30;;
21168;SDS011;10742;51.816;8.662;2022-07-30T15:30:52;11.70;;;2.72;;
21168;SDS011;10742;51.816;8.662;2022-07-30T15:34:15;9.02;;;2.60;;
21168;SDS011;10742;51.816;8.662;2022-07-30T15:37:36;6.35;;;2.35;;
21168;SDS011;10742;51.816;8.662;2022-07-30T15:40:58;7.05;;;2.60;;
21168;SDS011;10742;51.816;8.662;2022-07-30T15:44:19;4.65;;;2.30;;
21168;SDS011;10742;51.816;8.662;2022-07-30T15:47:40;4.43;;;2.50;;
21168;SDS011;10742;51.816;8.662;2022-07-30T15:51:02;3.70;;;2.50;;
21168;SDS011;10742;51.816;8.662;2022-07-30T15:54:24;4.53;;;2.38;;
21168;SDS011;10742;51.816;8.662;2022-07-30T15:57:46;4.10;;;2.35;;
21168;SDS011;10742;51.816;8.662;2022-07-30T16:01:07;5.85;;;2.83;;
21168;SDS011;10742;51.816;8.662;2022-07-30T16:04:29;3.53;;;2.38;;
21168;SDS011;10742;51.816;8.662;2022-07-30T16:07:52;7.70;;;2.70;;
21168;SDS011;10742;51.816;8.662;2022-07-30T16:11:14;3.65;;;2.58;;
21168;SDS011;10742;51.816;8.662;2022-07-30T16:14:35;4.07;;;2.25;;
21168;SDS011;10742;51.816;8.662;2022-07-30T16:17:56;4.03;;;2.55;;
21168;SDS011;10742;51.816;8.662;2022-07-30T16:21:18;5.35;;;2.88;;
21168;SDS011;10742;51.816;8.662;2022-07-30T16:24:41;4.65;;;2.40;;
21168;SDS011;10742;51.816;8.662;2022-07-30T16:28:02;31.08;;;19.27;;
21168;SDS011;10742;51.816;8.662;2022-07-30T16:31:24;20.13;;;9.77;;
21168;SDS011;10742;51.816;8.662;2022-07-30T16:34:45;10.60;;;4.95;;
21168;SDS011;10742;51.816;8.662;2022-07-30T16:38:06;29.45;;;14.65;;
21168;SDS011;10742;51.816;8.662;2022-07-30T16:41:28;18.80;;;9.48;;
21168;SDS011;10742;51.816;8.662;2022-07-30T16:44:49;19.35;;;10.27;;
21168;SDS011;10742;51.816;8.662;2022-07-30T16:48:10;34.17;;;20.40;;
21168;SDS011;10742;51.816;8.662;2022-07-30T16:51:33;129.63;;;71.70;;
21168;SDS011;10742;51.816;8.662;2022-07-30T16:54:55;47.25;;;27.00;;
21168;SDS011;10742;51.816;8.662;2022-07-30T16:58:16;31.17;;;17.20;;
21168;SDS011;10742;51.816;8.662;2022-07-30T17:01:38;25.48;;;13.90;;
21168;SDS011;10742;51.816;8.662;2022-07-30T17:05:00;16.23;;;5.60;;
21168;SDS011;10742;51.816;8.662;2022-07-30T17:08:21;26.70;;;13.93;;
21168;SDS011;10742;51.816;8.662;2022-07-30T17:11:43;10.77;;;4.70;;
21168;SDS011;10742;51.816;8.662;2022-07-30T17:15:04;6.60;;;3.95;;
21168;SDS011;10742;51.816;8.662;2022-07-30T17:18:27;8.68;;;3.30;;
21168;SDS011;10742;51.816;8.662;2022-07-30T17:21:48;5.45;;;2.42;;
21168;SDS011;10742;51.816;8.662;2022-07-30T17:25:10;5.22;;;2.45;;
21168;SDS011;10742;51.816;8.662;2022-07-30T17:28:31;5.05;;;2.47;;
21168;SDS011;10742;51.816;8.662;2022-07-30T17:31:52;8.48;;;3.03;;
21168;SDS011;10742;51.816;8.662;2022-07-30T17:35:14;5.93;;;2.55;;
21168;SDS011;10742;51.816;8.662;2022-07-30T17:38:35;4.80;;;2.33;;
21168;SDS011;10742;51.816;8.662;2022-07-30T17:41:56;9.05;;;2.92;;
21168;SDS011;10742;51.816;8.662;2022-07-30T17:45:18;4.50;;;2.45;;
21168;SDS011;10742;51.816;8.662;2022-07-30T17:48:39;7.70;;;2.47;;
21168;SDS011;10742;51.816;8.662;2022-07-30T17:52:01;4.35;;;2.28;;
21168;SDS011;10742;51.816;8.662;2022-07-30T17:55:23;5.32;;;2.20;;
21168;SDS011;10742;51.816;8.662;2022-07-30T17:58:45;10.55;;;2.85;;
21168;SDS011;10742;51.816;8.662;2022-07-30T18:02:06;11.10;;;3.10;;
21168;SDS011;10742;51.816;8.662;2022-07-30T18:05:28;3.65;;;2.40;;
21168;SDS011;10742;51.816;8.662;2022-07-30T18:08:49;4.60;;;2.10;;
21168;SDS011;10742;51.816;8.662;2022-07-30T18:12:10;7.40;;;2.63;;
21168;SDS011;10742;51.816;8.662;2022-07-30T18:15:32;10.65;;;2.97;;
21168;SDS011;10742;51.816;8.662;2022-07-30T18:18:53;6.72;;;2.17;;
21168;SDS011;10742;51.816;8.662;2022-07-30T18:22:14;8.00;;;2.20;;
21168;SDS011;10742;51.816;8.662;2022-07-30T18:25:35;4.05;;;1.92;;
21168;SDS011;10742;51.816;8.662;2022-07-30T18:28:57;4.32;;;2.67;;
21168;SDS011;10742;51.816;8.662;2022-07-30T18:32:18;4.90;;;2.58;;
21168;SDS011;10742;51.816;8.662;2022-07-30T18:35:40;6.32;;;2.20;;
21168;SDS011;10742;51.816;8.662;2022-07-30T18:39:02;6.63;;;2.30;;
21168;SDS011;10742;51.816;8.662;2022-07-30T18:42:23;6.28;;;2.25;;
21168;SDS011;10742;51.816;8.662;2022-07-30T18:45:45;4.30;;;2.42;;
21168;SDS011;10742;51.816;8.662;2022-07-30T18:49:08;5.18;;;2.15;;
21168;SDS011;10742;51.816;8.662;2022-07-30T18:52:46;8.23;;;2.63;;
21168;SDS011;10742;51.816;8.662;2022-07-30T18:56:08;6.38;;;3.20;;
21168;SDS011;10742;51.816;8.662;2022-07-30T18:59:29;6.28;;;3.40;;
21168;SDS011;10742;51.816;8.662;2022-07-30T19:02:51;6.22;;;3.00;;
21168;SDS011;10742;51.816;8.662;2022-07-30T19:06:12;6.15;;;2.80;;
21168;SDS011;10742;51.816;8.662;2022-07-30T19:09:35;8.70;;;2.65;;
21168;SDS011;10742;51.816;8.662;2022-07-30T19:12:56;4.97;;;2.42;;
21168;SDS011;10742;51.816;8.662;2022-07-30T19:16:18;5.57;;;2.20;;
21168;SDS011;10742;51.816;8.662;2022-07-30T19:19:40;4.75;;;2.33;;
21168;SDS011;10742;51.816;8.662;2022-07-30T19:23:02;4.72;;;2.50;;
21168;SDS011;10742;51.816;8.662;2022-07-30T19:26:25;9.73;;;2.75;;
21168;SDS011;10742;51.816;8.662;2022-07-30T19:29:47;8.40;;;3.28;;
21168;SDS011;10742;51.816;8.662;2022-07-30T19:33:09;8.50;;;2.92;;
21168;SDS011;10742;51.816;8.662;2022-07-30T19:36:34;8.27;;;2.85;;
21168;SDS011;10742;51.816;8.662;2022-07-30T19:39:55;3.70;;;2.45;;
21168;SDS011;10742;51.816;8.662;2022-07-30T19:43:17;8.65;;;2.90;;
21168;SDS011;10742;51.816;8.662;2022-07-30T19:46:39;7.38;;;2.42;;
21168;SDS011;10742;51.816;8.662;2022-07-30T19:50:00;7.53;;;3.00;;
21168;SDS011;10742;51.816;8.662;2022-07-30T19:53:22;5.05;;;2.75;;
21168;SDS011;10742;51.816;8.662;2022-07-30T19:56:43;6.10;;;2.58;;
21168;SDS011;10742;51.816;8.662;2022-07-30T20:00:05;6.32;;;2.60;;
21168;SDS011;10742;51.816;8.662;2022-07-30T20:03:36;4.22;;;2.08;;
21168;SDS011;10742;51.816;8.662;2022-07-30T20:06:58;7.78;;;1.98;;
21168;SDS011;10742;51.816;8.662;2022-07-30T20:10:20;4.20;;;2.25;;
21168;SDS011;10742;51.816;8.662;2022-07-30T20:13:41;4.05;;;2.13;;
21168;SDS011;10742;51.816;8.662;2022-07-30T20:17:03;3.92;;;2.00;;
21168;SDS011;10742;51.816;8.662;2022-07-30T20:20:24;4.60;;;2.15;;
21168;SDS011;10742;51.816;8.662;2022-07-30T20:23:46;5.20;;;2.10;;
21168;SDS011;10742;51.816;8.662;2022-07-30T20:27:07;4.70;;;2.35;;
21168;SDS011;10742;51.816;8.662;2022-07-30T20:30:28;4.80;;;2.25;;